sensor_id;sensor_type;location;lat;lon;timestamp;temperature;humidity
32749;DHT22;19119;52.474;13.710;2022-10-17T00:01:54;12.00;99.90
32749;DHT22;19119;52.474;13.710;2022-10-17T00:04:20;12.10;99.90
32749;DHT22;19119;52.474;13.710;2022-10-17T00:06:46;12.10;99.90
32749;DHT22;19119;52.474;13.710;2022-10-17T00:09:11;12.20;99.90
32749;DHT22;19119;52.474;13.710;2022-10-17T00:11:37;12.20;99.90
32749;DHT22;19119;52.474;13.710;2022-10-17T00:14:03;12.30;99.90
32749;DHT22;19119;52.474;13.710;2022-10-17T00:16:31;12.20;99.90
32749;DHT22;19119;52.474;13.710;2022-10-17T00:18:58;12.30;99.90
32749;DHT22;19119;52.474;13.710;2022-10-17T00:21:24;12.30;99.90
32749;DHT22;19119;52.474;13.710;2022-10-17T00:23:51;12.30;99.90
32749;DHT22;19119;52.474;13.710;2022-10-17T00:26:17;12.30;99.90
32749;DHT22;19119;52.474;13.710;2022-10-17T00:28:46;12.40;99.90
32749;DHT22;19119;52.474;13.710;2022-10-17T00:31:12;12.40;99.90
32749;DHT22;19119;52.474;13.710;2022-10-17T00:33:38;12.50;99.90
32749;DHT22;19119;52.474;13.710;2022-10-17T00:36:08;12.50;99.90
32749;DHT22;19119;52.474;13.710;2022-10-17T00:38:35;12.50;99.90
32749;DHT22;19119;52.474;13.710;2022-10-17T00:41:01;12.50;99.90
32749;DHT22;19119;52.474;13.710;2022-10-17T00:43:27;12.50;99.90
32749;DHT22;19119;52.474;13.710;2022-10-17T00:45:54;12.30;99.90
32749;DHT22;19119;52.474;13.710;2022-10-17T00:48:20;12.20;99.90
32749;DHT22;19119;52.474;13.710;2022-10-17T00:50:47;12.10;99.90
32749;DHT22;19119;52.474;13.710;2022-10-17T00:53:15;12.10;99.90
32749;DHT22;19119;52.474;13.710;2022-10-17T00:55:48;12.10;99.90
32749;DHT22;19119;52.474;13.710;2022-10-17T00:58:15;12.10;99.90
32749;DHT22;19119;52.474;13.710;2022-10-17T01:00:42;12.10;99.90
32749;DHT22;19119;52.474;13.710;2022-10-17T01:03:08;12.10;99.90
32749;DHT22;19119;52.474;13.710;2022-10-17T01:05:34;12.00;99.90
32749;DHT22;19119;52.474;13.710;2022-10-17T01:08:00;11.90;99.90
32749;DHT22;19119;52.474;13.710;2022-10-17T01:10:55;12.00;99.90
32749;DHT22;19119;52.474;13.710;2022-10-17T01:16:34;12.10;99.90
32749;DHT22;19119;52.474;13.710;2022-10-17T01:22:28;12.20;99.90
32749;DHT22;19119;52.474;13.710;2022-10-17T01:25:05;12.20;99.90
32749;DHT22;19119;52.474;13.710;2022-10-17T01:30:43;12.30;99.90
32749;DHT22;19119;52.474;13.710;2022-10-17T01:33:50;12.30;99.90
32749;DHT22;19119;52.474;13.710;2022-10-17T01:36:24;12.20;99.90
32749;DHT22;19119;52.474;13.710;2022-10-17T01:39:04;12.10;99.90
32749;DHT22;19119;52.474;13.710;2022-10-17T01:41:51;12.10;99.90
32749;DHT22;19119;52.474;13.710;2022-10-17T01:44:34;12.10;99.90
32749;DHT22;19119;52.474;13.710;2022-10-17T01:47:05;12.00;99.90
32749;DHT22;19119;52.474;13.710;2022-10-17T01:49:34;12.00;99.90
32749;DHT22;19119;52.474;13.710;2022-10-17T01:52:14;11.90;99.90
32749;DHT22;19119;52.474;13.710;2022-10-17T01:54:51;11.90;99.90
32749;DHT22;19119;52.474;13.710;2022-10-17T01:57:27;11.90;99.90
32749;DHT22;19119;52.474;13.710;2022-10-17T01:59:54;11.90;99.90
32749;DHT22;19119;52.474;13.710;2022-10-17T02:02:20;11.90;99.90
32749;DHT22;19119;52.474;13.710;2022-10-17T02:04:49;11.80;99.90
32749;DHT22;19119;52.474;13.710;2022-10-17T02:07:15;11.80;99.90
32749;DHT22;19119;52.474;13.710;2022-10-17T02:09:41;11.70;99.90
32749;DHT22;19119;52.474;13.710;2022-10-17T02:15:18;11.60;99.90
32749;DHT22;19119;52.474;13.710;2022-10-17T02:17:57;11.70;99.90
32749;DHT22;19119;52.474;13.710;2022-10-17T02:23:30;11.60;99.90
32749;DHT22;19119;52.474;13.710;2022-10-17T02:26:10;11.60;99.90
32749;DHT22;19119;52.474;13.710;2022-10-17T02:29:04;11.60;99.90
32749;DHT22;19119;52.474;13.710;2022-10-17T02:31:39;11.60;99.90
32749;DHT22;19119;52.474;13.710;2022-10-17T02:34:21;11.60;99.90
32749;DHT22;19119;52.474;13.710;2022-10-17T02:36:52;11.60;99.90
32749;DHT22;19119;52.474;13.710;2022-10-17T02:39:22;11.60;99.90
32749;DHT22;19119;52.474;13.710;2022-10-17T02:41:50;11.60;99.90
32749;DHT22;19119;52.474;13.710;2022-10-17T02:44:17;11.60;99.90
32749;DHT22;19119;52.474;13.710;2022-10-17T02:46:50;11.60;99.90
32749;DHT22;19119;52.474;13.710;2022-10-17T02:49:27;11.70;99.90
32749;DHT22;19119;52.474;13.710;2022-10-17T02:52:14;11.60;99.90
32749;DHT22;19119;52.474;13.710;2022-10-17T02:54:51;11.60;99.90
32749;DHT22;19119;52.474;13.710;2022-10-17T02:57:25;11.60;99.90
32749;DHT22;19119;52.474;13.710;2022-10-17T02:59:53;11.70;99.90
32749;DHT22;19119;52.474;13.710;2022-10-17T03:02:19;11.60;99.90
32749;DHT22;19119;52.474;13.710;2022-10-17T03:04:45;11.70;99.90
32749;DHT22;19119;52.474;13.710;2022-10-17T03:07:11;11.70;99.90
32749;DHT22;19119;52.474;13.710;2022-10-17T03:09:36;11.70;99.90
32749;DHT22;19119;52.474;13.710;2022-10-17T03:12:02;11.60;99.90
32749;DHT22;19119;52.474;13.710;2022-10-17T03:14:28;11.60;99.90
32749;DHT22;19119;52.474;13.710;2022-10-17T03:16:54;11.70;99.90
32749;DHT22;19119;52.474;13.710;2022-10-17T03:19:19;11.80;99.90
32749;DHT22;19119;52.474;13.710;2022-10-17T03:21:45;11.70;99.90
32749;DHT22;19119;52.474;13.710;2022-10-17T03:24:10;11.80;99.90
32749;DHT22;19119;52.474;13.710;2022-10-17T03:26:36;11.80;99.90
32749;DHT22;19119;52.474;13.710;2022-10-17T03:29:01;11.80;99.90
32749;DHT22;19119;52.474;13.710;2022-10-17T03:31:27;11.80;99.90
32749;DHT22;19119;52.474;13.710;2022-10-17T03:33:52;11.90;99.90
32749;DHT22;19119;52.474;13.710;2022-10-17T03:36:18;11.90;99.90
32749;DHT22;19119;52.474;13.710;2022-10-17T03:38:44;11.90;99.90
32749;DHT22;19119;52.474;13.710;2022-10-17T03:41:11;11.90;99.90
32749;DHT22;19119;52.474;13.710;2022-10-17T03:43:37;11.90;99.90
32749;DHT22;19119;52.474;13.710;2022-10-17T03:46:05;12.00;99.90
32749;DHT22;19119;52.474;13.710;2022-10-17T03:48:31;12.00;99.90
32749;DHT22;19119;52.474;13.710;2022-10-17T03:51:05;12.00;99.90
32749;DHT22;19119;52.474;13.710;2022-10-17T03:53:31;12.00;99.90
32749;DHT22;19119;52.474;13.710;2022-10-17T03:56:08;12.10;99.90
32749;DHT22;19119;52.474;13.710;2022-10-17T03:58:34;12.10;99.90
32749;DHT22;19119;52.474;13.710;2022-10-17T04:01:07;12.10;99.90
32749;DHT22;19119;52.474;13.710;2022-10-17T04:03:32;12.10;99.90
32749;DHT22;19119;52.474;13.710;2022-10-17T04:05:59;12.00;99.90
32749;DHT22;19119;52.474;13.710;2022-10-17T04:08:25;12.00;99.90
32749;DHT22;19119;52.474;13.710;2022-10-17T04:10:51;12.00;99.90
32749;DHT22;19119;52.474;13.710;2022-10-17T04:13:17;11.90;99.90
32749;DHT22;19119;52.474;13.710;2022-10-17T04:15:56;11.90;99.90
32749;DHT22;19119;52.474;13.710;2022-10-17T04:18:22;11.90;99.90
32749;DHT22;19119;52.474;13.710;2022-10-17T04:20:48;11.90;99.90
32749;DHT22;19119;52.474;13.710;2022-10-17T04:23:13;11.90;99.90
32749;DHT22;19119;52.474;13.710;2022-10-17T04:25:39;11.90;99.90
32749;DHT22;19119;52.474;13.710;2022-10-17T04:28:04;12.00;99.90
32749;DHT22;19119;52.474;13.710;2022-10-17T04:30:30;12.10;99.90
32749;DHT22;19119;52.474;13.710;2022-10-17T04:32:55;12.10;99.90
32749;DHT22;19119;52.474;13.710;2022-10-17T04:35:21;12.10;99.90
32749;DHT22;19119;52.474;13.710;2022-10-17T04:37:46;12.20;99.90
32749;DHT22;19119;52.474;13.710;2022-10-17T04:40:12;12.30;99.90
32749;DHT22;19119;52.474;13.710;2022-10-17T04:42:38;12.20;99.90
32749;DHT22;19119;52.474;13.710;2022-10-17T04:45:04;12.20;99.90
32749;DHT22;19119;52.474;13.710;2022-10-17T04:47:29;12.20;99.90
32749;DHT22;19119;52.474;13.710;2022-10-17T04:49:55;12.30;99.90
32749;DHT22;19119;52.474;13.710;2022-10-17T04:52:21;12.20;99.90
32749;DHT22;19119;52.474;13.710;2022-10-17T04:54:46;12.20;99.90
32749;DHT22;19119;52.474;13.710;2022-10-17T04:57:12;12.20;99.90
32749;DHT22;19119;52.474;13.710;2022-10-17T04:59:38;12.20;99.90
32749;DHT22;19119;52.474;13.710;2022-10-17T05:02:04;12.20;99.90
32749;DHT22;19119;52.474;13.710;2022-10-17T05:04:29;12.20;99.90
32749;DHT22;19119;52.474;13.710;2022-10-17T05:06:55;12.20;99.90
32749;DHT22;19119;52.474;13.710;2022-10-17T05:09:20;12.20;99.90
32749;DHT22;19119;52.474;13.710;2022-10-17T05:11:46;12.40;99.90
32749;DHT22;19119;52.474;13.710;2022-10-17T05:14:11;12.50;99.90
32749;DHT22;19119;52.474;13.710;2022-10-17T05:16:37;12.50;99.90
32749;DHT22;19119;52.474;13.710;2022-10-17T05:19:02;12.70;99.90
32749;DHT22;19119;52.474;13.710;2022-10-17T05:21:29;12.80;99.90
32749;DHT22;19119;52.474;13.710;2022-10-17T05:23:55;12.90;99.90
32749;DHT22;19119;52.474;13.710;2022-10-17T05:26:21;12.90;99.90
32749;DHT22;19119;52.474;13.710;2022-10-17T05:28:47;13.00;99.90
32749;DHT22;19119;52.474;13.710;2022-10-17T05:31:12;12.90;99.90
32749;DHT22;19119;52.474;13.710;2022-10-17T05:33:39;13.00;99.90
32749;DHT22;19119;52.474;13.710;2022-10-17T05:36:05;13.00;99.90
32749;DHT22;19119;52.474;13.710;2022-10-17T05:38:31;13.00;99.90
32749;DHT22;19119;52.474;13.710;2022-10-17T05:41:01;13.00;99.90
32749;DHT22;19119;52.474;13.710;2022-10-17T05:43:28;13.00;99.90
32749;DHT22;19119;52.474;13.710;2022-10-17T05:45:54;13.00;99.90
32749;DHT22;19119;52.474;13.710;2022-10-17T05:48:20;13.00;99.90
32749;DHT22;19119;52.474;13.710;2022-10-17T05:50:46;13.00;99.90
32749;DHT22;19119;52.474;13.710;2022-10-17T05:53:12;13.10;99.90
32749;DHT22;19119;52.474;13.710;2022-10-17T05:55:37;13.10;99.90
32749;DHT22;19119;52.474;13.710;2022-10-17T05:58:03;13.10;99.90
32749;DHT22;19119;52.474;13.710;2022-10-17T06:00:28;13.10;99.90
32749;DHT22;19119;52.474;13.710;2022-10-17T06:02:54;13.10;99.90
32749;DHT22;19119;52.474;13.710;2022-10-17T06:05:20;13.20;99.90
32749;DHT22;19119;52.474;13.710;2022-10-17T06:07:45;13.20;99.90
32749;DHT22;19119;52.474;13.710;2022-10-17T06:10:11;13.20;99.90
32749;DHT22;19119;52.474;13.710;2022-10-17T06:12:38;13.30;99.90
32749;DHT22;19119;52.474;13.710;2022-10-17T06:15:04;13.40;99.90
32749;DHT22;19119;52.474;13.710;2022-10-17T06:17:29;13.40;99.90
32749;DHT22;19119;52.474;13.710;2022-10-17T06:19:55;13.50;99.90
32749;DHT22;19119;52.474;13.710;2022-10-17T06:22:21;13.50;99.90
32749;DHT22;19119;52.474;13.710;2022-10-17T06:24:47;13.60;99.90
32749;DHT22;19119;52.474;13.710;2022-10-17T06:27:12;13.60;99.90
32749;DHT22;19119;52.474;13.710;2022-10-17T06:29:38;13.70;99.90
32749;DHT22;19119;52.474;13.710;2022-10-17T06:32:04;13.80;99.90
32749;DHT22;19119;52.474;13.710;2022-10-17T06:34:30;13.80;99.90
32749;DHT22;19119;52.474;13.710;2022-10-17T06:36:56;13.90;99.90
32749;DHT22;19119;52.474;13.710;2022-10-17T06:39:21;13.90;99.90
32749;DHT22;19119;52.474;13.710;2022-10-17T06:41:47;13.90;99.90
32749;DHT22;19119;52.474;13.710;2022-10-17T06:44:13;14.00;99.90
32749;DHT22;19119;52.474;13.710;2022-10-17T06:46:39;14.00;99.90
32749;DHT22;19119;52.474;13.710;2022-10-17T06:49:05;14.00;99.90
32749;DHT22;19119;52.474;13.710;2022-10-17T06:51:34;14.10;99.90
32749;DHT22;19119;52.474;13.710;2022-10-17T06:54:00;14.10;99.90
32749;DHT22;19119;52.474;13.710;2022-10-17T06:56:26;14.20;99.90
32749;DHT22;19119;52.474;13.710;2022-10-17T06:58:51;14.30;99.90
32749;DHT22;19119;52.474;13.710;2022-10-17T07:01:17;14.40;99.90
32749;DHT22;19119;52.474;13.710;2022-10-17T07:03:46;14.50;99.90
32749;DHT22;19119;52.474;13.710;2022-10-17T07:06:11;14.60;99.90
32749;DHT22;19119;52.474;13.710;2022-10-17T07:08:40;14.60;99.90
32749;DHT22;19119;52.474;13.710;2022-10-17T07:11:14;14.70;99.90
32749;DHT22;19119;52.474;13.710;2022-10-17T07:13:40;14.70;99.90
32749;DHT22;19119;52.474;13.710;2022-10-17T07:16:06;14.70;99.90
32749;DHT22;19119;52.474;13.710;2022-10-17T07:18:32;14.70;99.90
32749;DHT22;19119;52.474;13.710;2022-10-17T07:20:58;14.80;99.90
32749;DHT22;19119;52.474;13.710;2022-10-17T07:23:23;14.90;99.90
32749;DHT22;19119;52.474;13.710;2022-10-17T07:25:49;15.00;99.90
32749;DHT22;19119;52.474;13.710;2022-10-17T07:28:15;15.10;99.90
32749;DHT22;19119;52.474;13.710;2022-10-17T07:30:41;15.20;99.90
32749;DHT22;19119;52.474;13.710;2022-10-17T07:33:07;15.30;99.90
32749;DHT22;19119;52.474;13.710;2022-10-17T07:35:32;15.50;99.90
32749;DHT22;19119;52.474;13.710;2022-10-17T07:37:58;15.50;99.90
32749;DHT22;19119;52.474;13.710;2022-10-17T07:40:23;15.50;99.90
32749;DHT22;19119;52.474;13.710;2022-10-17T07:42:49;15.60;99.90
32749;DHT22;19119;52.474;13.710;2022-10-17T07:45:15;15.60;99.90
32749;DHT22;19119;52.474;13.710;2022-10-17T07:47:41;15.70;99.90
32749;DHT22;19119;52.474;13.710;2022-10-17T07:50:07;15.80;99.90
32749;DHT22;19119;52.474;13.710;2022-10-17T07:52:33;15.90;99.90
32749;DHT22;19119;52.474;13.710;2022-10-17T07:54:58;16.10;99.90
32749;DHT22;19119;52.474;13.710;2022-10-17T07:57:24;16.30;99.90
32749;DHT22;19119;52.474;13.710;2022-10-17T07:59:50;16.60;99.90
32749;DHT22;19119;52.474;13.710;2022-10-17T08:02:17;16.70;99.90
32749;DHT22;19119;52.474;13.710;2022-10-17T08:04:44;16.80;99.90
32749;DHT22;19119;52.474;13.710;2022-10-17T08:07:10;17.00;99.90
32749;DHT22;19119;52.474;13.710;2022-10-17T08:09:35;17.10;99.90
32749;DHT22;19119;52.474;13.710;2022-10-17T08:12:01;17.30;99.90
32749;DHT22;19119;52.474;13.710;2022-10-17T08:14:27;17.60;99.90
32749;DHT22;19119;52.474;13.710;2022-10-17T08:16:53;17.60;99.90
32749;DHT22;19119;52.474;13.710;2022-10-17T08:19:19;17.80;99.90
32749;DHT22;19119;52.474;13.710;2022-10-17T08:21:44;17.90;99.90
32749;DHT22;19119;52.474;13.710;2022-10-17T08:24:11;18.00;99.90
32749;DHT22;19119;52.474;13.710;2022-10-17T08:26:36;18.20;99.90
32749;DHT22;19119;52.474;13.710;2022-10-17T08:29:02;18.40;99.90
32749;DHT22;19119;52.474;13.710;2022-10-17T08:31:28;18.40;99.90
32749;DHT22;19119;52.474;13.710;2022-10-17T08:33:53;18.60;99.90
32749;DHT22;19119;52.474;13.710;2022-10-17T08:36:19;18.70;99.90
32749;DHT22;19119;52.474;13.710;2022-10-17T08:38:46;18.90;99.90
32749;DHT22;19119;52.474;13.710;2022-10-17T08:44:18;19.50;99.90
32749;DHT22;19119;52.474;13.710;2022-10-17T08:46:47;19.50;99.90
32749;DHT22;19119;52.474;13.710;2022-10-17T08:49:40;19.50;99.90
32749;DHT22;19119;52.474;13.710;2022-10-17T08:52:35;19.70;99.90
32749;DHT22;19119;52.474;13.710;2022-10-17T08:55:17;19.90;99.90
32749;DHT22;19119;52.474;13.710;2022-10-17T08:57:47;20.20;99.90
32749;DHT22;19119;52.474;13.710;2022-10-17T09:00:20;20.40;99.90
32749;DHT22;19119;52.474;13.710;2022-10-17T09:03:08;20.50;99.90
32749;DHT22;19119;52.474;13.710;2022-10-17T09:17:13;21.40;99.90
32749;DHT22;19119;52.474;13.710;2022-10-17T09:19:57;21.50;99.90
32749;DHT22;19119;52.474;13.710;2022-10-17T09:22:27;21.40;99.90
32749;DHT22;19119;52.474;13.710;2022-10-17T09:24:57;21.50;99.90
32749;DHT22;19119;52.474;13.710;2022-10-17T09:27:26;21.30;99.90
32749;DHT22;19119;52.474;13.710;2022-10-17T09:30:33;21.40;99.90
32749;DHT22;19119;52.474;13.710;2022-10-17T09:32:59;21.40;99.90
32749;DHT22;19119;52.474;13.710;2022-10-17T09:35:27;21.40;99.90
32749;DHT22;19119;52.474;13.710;2022-10-17T09:37:53;21.70;99.90
32749;DHT22;19119;52.474;13.710;2022-10-17T09:40:25;21.50;99.90
32749;DHT22;19119;52.474;13.710;2022-10-17T09:42:52;21.80;99.90
32749;DHT22;19119;52.474;13.710;2022-10-17T09:45:23;21.80;99.90
32749;DHT22;19119;52.474;13.710;2022-10-17T09:48:00;21.60;99.90
32749;DHT22;19119;52.474;13.710;2022-10-17T09:50:31;21.80;99.90
32749;DHT22;19119;52.474;13.710;2022-10-17T09:53:05;22.00;99.90
32749;DHT22;19119;52.474;13.710;2022-10-17T09:55:42;22.30;99.90
32749;DHT22;19119;52.474;13.710;2022-10-17T09:58:10;22.50;99.90
32749;DHT22;19119;52.474;13.710;2022-10-17T10:00:41;22.60;99.90
32749;DHT22;19119;52.474;13.710;2022-10-17T10:03:16;22.70;99.90
32749;DHT22;19119;52.474;13.710;2022-10-17T10:05:57;22.60;99.90
32749;DHT22;19119;52.474;13.710;2022-10-17T10:08:33;22.70;99.90
32749;DHT22;19119;52.474;13.710;2022-10-17T10:11:00;22.70;99.90
32749;DHT22;19119;52.474;13.710;2022-10-17T10:13:29;23.10;99.90
32749;DHT22;19119;52.474;13.710;2022-10-17T10:16:13;22.70;99.90
32749;DHT22;19119;52.474;13.710;2022-10-17T10:18:39;22.90;99.90
32749;DHT22;19119;52.474;13.710;2022-10-17T10:21:19;23.20;99.90
32749;DHT22;19119;52.474;13.710;2022-10-17T10:24:12;23.50;99.90
32749;DHT22;19119;52.474;13.710;2022-10-17T10:26:39;23.80;99.90
32749;DHT22;19119;52.474;13.710;2022-10-17T10:31:49;23.70;99.90
32749;DHT22;19119;52.474;13.710;2022-10-17T10:34:25;23.60;99.90
32749;DHT22;19119;52.474;13.710;2022-10-17T10:39:35;23.30;99.90
32749;DHT22;19119;52.474;13.710;2022-10-17T10:42:05;23.40;99.90
32749;DHT22;19119;52.474;13.710;2022-10-17T10:44:32;23.50;99.90
32749;DHT22;19119;52.474;13.710;2022-10-17T10:47:14;23.30;99.90
32749;DHT22;19119;52.474;13.710;2022-10-17T10:49:41;23.40;99.90
32749;DHT22;19119;52.474;13.710;2022-10-17T10:52:07;23.50;99.90
32749;DHT22;19119;52.474;13.710;2022-10-17T10:54:45;23.50;99.90
32749;DHT22;19119;52.474;13.710;2022-10-17T10:57:19;23.70;99.90
32749;DHT22;19119;52.474;13.710;2022-10-17T10:59:57;23.90;99.90
32749;DHT22;19119;52.474;13.710;2022-10-17T11:02:46;24.10;99.90
32749;DHT22;19119;52.474;13.710;2022-10-17T11:07:53;24.50;99.90
32749;DHT22;19119;52.474;13.710;2022-10-17T11:10:40;24.80;99.90
32749;DHT22;19119;52.474;13.710;2022-10-17T11:18:25;25.20;99.90
32749;DHT22;19119;52.474;13.710;2022-10-17T11:20:59;25.30;99.90
32749;DHT22;19119;52.474;13.710;2022-10-17T11:23:46;25.30;99.90
32749;DHT22;19119;52.474;13.710;2022-10-17T11:26:21;25.30;99.90
32749;DHT22;19119;52.474;13.710;2022-10-17T11:28:58;25.30;99.90
32749;DHT22;19119;52.474;13.710;2022-10-17T11:31:30;25.50;99.90
32749;DHT22;19119;52.474;13.710;2022-10-17T11:34:00;25.30;99.90
32749;DHT22;19119;52.474;13.710;2022-10-17T11:36:33;25.40;99.90
32749;DHT22;19119;52.474;13.710;2022-10-17T11:39:20;25.50;99.90
32749;DHT22;19119;52.474;13.710;2022-10-17T11:41:53;25.80;99.90
32749;DHT22;19119;52.474;13.710;2022-10-17T11:44:34;25.80;99.90
32749;DHT22;19119;52.474;13.710;2022-10-17T11:47:27;26.00;99.90
32749;DHT22;19119;52.474;13.710;2022-10-17T11:53:00;26.10;99.90
32749;DHT22;19119;52.474;13.710;2022-10-17T11:55:30;25.80;99.90
32749;DHT22;19119;52.474;13.710;2022-10-17T12:06:19;25.00;99.90
32749;DHT22;19119;52.474;13.710;2022-10-17T12:11:53;25.30;99.90
32749;DHT22;19119;52.474;13.710;2022-10-17T12:14:41;25.50;99.90
32749;DHT22;19119;52.474;13.710;2022-10-17T12:17:30;25.50;99.90
32749;DHT22;19119;52.474;13.710;2022-10-17T12:20:21;25.50;99.90
32749;DHT22;19119;52.474;13.710;2022-10-17T12:25:24;25.50;99.90
32749;DHT22;19119;52.474;13.710;2022-10-17T12:28:11;25.60;99.90
32749;DHT22;19119;52.474;13.710;2022-10-17T12:30:53;25.60;99.90
32749;DHT22;19119;52.474;13.710;2022-10-17T12:41:12;26.20;99.90
32749;DHT22;19119;52.474;13.710;2022-10-17T12:43:45;26.10;99.90
32749;DHT22;19119;52.474;13.710;2022-10-17T12:46:12;26.10;99.90
32749;DHT22;19119;52.474;13.710;2022-10-17T12:48:59;26.60;99.90
32749;DHT22;19119;52.474;13.710;2022-10-17T12:51:25;26.40;99.90
32749;DHT22;19119;52.474;13.710;2022-10-17T12:59:00;26.30;99.90
32749;DHT22;19119;52.474;13.710;2022-10-17T13:01:32;25.90;99.90
32749;DHT22;19119;52.474;13.710;2022-10-17T13:04:00;26.00;99.90
32749;DHT22;19119;52.474;13.710;2022-10-17T13:06:31;26.10;99.90
32749;DHT22;19119;52.474;13.710;2022-10-17T13:09:47;25.80;99.90
32749;DHT22;19119;52.474;13.710;2022-10-17T13:11:48;25.80;99.90
32749;DHT22;19119;52.474;13.710;2022-10-17T13:14:17;26.00;99.90
32749;DHT22;19119;52.474;13.710;2022-10-17T13:17:02;26.10;99.90
32749;DHT22;19119;52.474;13.710;2022-10-17T13:19:30;25.50;99.90
32749;DHT22;19119;52.474;13.710;2022-10-17T13:21:59;25.20;99.90
32749;DHT22;19119;52.474;13.710;2022-10-17T13:24:30;25.20;99.90
32749;DHT22;19119;52.474;13.710;2022-10-17T13:26:57;25.20;99.90
32749;DHT22;19119;52.474;13.710;2022-10-17T13:29:23;25.20;99.90
32749;DHT22;19119;52.474;13.710;2022-10-17T13:31:52;25.10;99.90
32749;DHT22;19119;52.474;13.710;2022-10-17T13:34:23;25.20;99.90
32749;DHT22;19119;52.474;13.710;2022-10-17T13:36:56;25.10;99.90
32749;DHT22;19119;52.474;13.710;2022-10-17T13:39:25;25.00;99.90
32749;DHT22;19119;52.474;13.710;2022-10-17T13:41:52;24.70;99.90
32749;DHT22;19119;52.474;13.710;2022-10-17T13:44:21;24.50;99.90
32749;DHT22;19119;52.474;13.710;2022-10-17T13:46:47;24.50;99.90
32749;DHT22;19119;52.474;13.710;2022-10-17T13:49:18;24.50;99.90
32749;DHT22;19119;52.474;13.710;2022-10-17T13:51:47;24.30;99.90
32749;DHT22;19119;52.474;13.710;2022-10-17T13:56:57;24.50;99.90
32749;DHT22;19119;52.474;13.710;2022-10-17T13:59:36;24.40;99.90
32749;DHT22;19119;52.474;13.710;2022-10-17T14:02:03;24.40;99.90
32749;DHT22;19119;52.474;13.710;2022-10-17T14:04:30;24.40;99.90
32749;DHT22;19119;52.474;13.710;2022-10-17T14:06:55;24.30;99.90
32749;DHT22;19119;52.474;13.710;2022-10-17T14:09:24;24.40;99.90
32749;DHT22;19119;52.474;13.710;2022-10-17T14:12:02;24.50;99.90
32749;DHT22;19119;52.474;13.710;2022-10-17T14:14:31;24.50;99.90
32749;DHT22;19119;52.474;13.710;2022-10-17T14:16:57;24.20;99.90
32749;DHT22;19119;52.474;13.710;2022-10-17T14:19:27;24.20;99.90
32749;DHT22;19119;52.474;13.710;2022-10-17T14:21:55;24.30;99.90
32749;DHT22;19119;52.474;13.710;2022-10-17T14:24:38;24.30;99.90
32749;DHT22;19119;52.474;13.710;2022-10-17T14:27:37;24.30;99.90
32749;DHT22;19119;52.474;13.710;2022-10-17T14:32:58;24.30;99.90
32749;DHT22;19119;52.474;13.710;2022-10-17T14:35:26;24.30;99.90
32749;DHT22;19119;52.474;13.710;2022-10-17T14:37:52;24.40;99.90
32749;DHT22;19119;52.474;13.710;2022-10-17T14:40:23;24.30;99.90
32749;DHT22;19119;52.474;13.710;2022-10-17T14:42:51;24.30;99.90
32749;DHT22;19119;52.474;13.710;2022-10-17T14:45:27;24.30;99.90
32749;DHT22;19119;52.474;13.710;2022-10-17T14:48:01;24.20;99.90
32749;DHT22;19119;52.474;13.710;2022-10-17T14:50:30;24.30;99.90
32749;DHT22;19119;52.474;13.710;2022-10-17T14:55:33;24.10;99.90
32749;DHT22;19119;52.474;13.710;2022-10-17T14:57:59;24.10;99.90
32749;DHT22;19119;52.474;13.710;2022-10-17T15:00:25;23.90;99.90
32749;DHT22;19119;52.474;13.710;2022-10-17T15:02:52;24.00;99.90
32749;DHT22;19119;52.474;13.710;2022-10-17T15:05:18;23.90;99.90
32749;DHT22;19119;52.474;13.710;2022-10-17T15:07:45;23.60;99.90
32749;DHT22;19119;52.474;13.710;2022-10-17T15:10:37;23.50;99.90
32749;DHT22;19119;52.474;13.710;2022-10-17T15:13:06;23.50;99.90
32749;DHT22;19119;52.474;13.710;2022-10-17T15:15:32;23.40;99.90
32749;DHT22;19119;52.474;13.710;2022-10-17T15:17:58;23.50;99.90
32749;DHT22;19119;52.474;13.710;2022-10-17T15:20:25;23.40;99.90
32749;DHT22;19119;52.474;13.710;2022-10-17T15:22:59;23.30;99.90
32749;DHT22;19119;52.474;13.710;2022-10-17T15:25:27;23.20;99.90
32749;DHT22;19119;52.474;13.710;2022-10-17T15:27:53;23.10;99.90
32749;DHT22;19119;52.474;13.710;2022-10-17T15:32:48;23.00;99.90
32749;DHT22;19119;52.474;13.710;2022-10-17T15:35:14;22.90;99.90
32749;DHT22;19119;52.474;13.710;2022-10-17T15:37:40;22.90;99.90
32749;DHT22;19119;52.474;13.710;2022-10-17T15:40:13;22.70;99.90
32749;DHT22;19119;52.474;13.710;2022-10-17T15:42:39;22.60;99.90
32749;DHT22;19119;52.474;13.710;2022-10-17T15:45:05;22.50;99.90
32749;DHT22;19119;52.474;13.710;2022-10-17T15:47:32;22.50;99.90
32749;DHT22;19119;52.474;13.710;2022-10-17T15:49:58;22.50;99.90
32749;DHT22;19119;52.474;13.710;2022-10-17T15:52:25;22.30;99.90
32749;DHT22;19119;52.474;13.710;2022-10-17T15:54:51;22.20;99.90
32749;DHT22;19119;52.474;13.710;2022-10-17T15:57:29;22.20;99.90
32749;DHT22;19119;52.474;13.710;2022-10-17T15:59:57;22.10;99.90
32749;DHT22;19119;52.474;13.710;2022-10-17T16:02:23;22.00;99.90
32749;DHT22;19119;52.474;13.710;2022-10-17T16:04:49;21.80;99.90
32749;DHT22;19119;52.474;13.710;2022-10-17T16:07:18;21.70;99.90
32749;DHT22;19119;52.474;13.710;2022-10-17T16:09:44;21.50;99.90
32749;DHT22;19119;52.474;13.710;2022-10-17T16:12:13;21.40;99.90
32749;DHT22;19119;52.474;13.710;2022-10-17T16:14:40;21.30;99.90
32749;DHT22;19119;52.474;13.710;2022-10-17T16:17:11;21.20;99.90
32749;DHT22;19119;52.474;13.710;2022-10-17T16:19:37;21.10;99.90
32749;DHT22;19119;52.474;13.710;2022-10-17T16:22:03;21.00;99.90
32749;DHT22;19119;52.474;13.710;2022-10-17T16:24:30;20.90;99.90
32749;DHT22;19119;52.474;13.710;2022-10-17T16:26:56;20.90;99.90
32749;DHT22;19119;52.474;13.710;2022-10-17T16:29:21;20.80;99.90
32749;DHT22;19119;52.474;13.710;2022-10-17T16:31:47;20.70;99.90
32749;DHT22;19119;52.474;13.710;2022-10-17T16:34:13;20.50;99.90
32749;DHT22;19119;52.474;13.710;2022-10-17T16:36:40;20.50;99.90
32749;DHT22;19119;52.474;13.710;2022-10-17T16:39:06;20.40;99.90
32749;DHT22;19119;52.474;13.710;2022-10-17T16:41:34;20.40;99.90
32749;DHT22;19119;52.474;13.710;2022-10-17T16:44:05;20.40;99.90
32749;DHT22;19119;52.474;13.710;2022-10-17T16:46:32;20.30;99.90
32749;DHT22;19119;52.474;13.710;2022-10-17T16:48:58;20.30;99.90
32749;DHT22;19119;52.474;13.710;2022-10-17T16:51:24;20.30;99.90
32749;DHT22;19119;52.474;13.710;2022-10-17T16:53:51;20.20;99.90
32749;DHT22;19119;52.474;13.710;2022-10-17T16:56:23;20.20;99.90